Time;durP1;ratioP1;P1;durP2;ratioP2;P2;SDS_P1;SDS_P2;PMS_P1;PMS_P2;Temp;Humidity;BMP_temperature;BMP_pressure;BME280_temperature;BME280_humidity;BME280_pressure;Samples;Min_cycle;Max_cycle;Signal;HPM_P1;HPM_P2
2021/10/13 00:00:27;;;;;;;0.40;0.40;;;;;;;;;;5090950;28;20843;-67
2021/10/13 00:02:53;;;;;;;0.40;0.40;;;;;;;;;;5094466;28;20902;-66
2021/10/13 00:05:19;;;;;;;0.30;0.30;;;;;;;;;;5095337;28;20253;-66
2021/10/13 00:07:44;;;;;;;0.50;0.50;;;;;;;;;;5094357;28;20465;-66
2021/10/13 00:10:10;;;;;;;0.40;0.40;;;;;;;;;;5094654;28;20991;-67
2021/10/13 00:12:36;;;;;;;0.40;0.40;;;;;;;;;;5094727;28;20952;-67
2021/10/13 00:15:06;;;;;;;0.50;0.50;;;;;;;;;;5094949;28;20491;-67
2021/10/13 00:17:32;;;;;;;0.40;0.40;;;;;;;;;;5094950;28;20439;-67
2021/10/13 00:19:58;;;;;;;0.40;0.40;;;;;;;;;;5094404;28;20248;-66
2021/10/13 00:22:25;;;;;;;0.40;0.40;;;;;;;;;;5094643;28;20205;-66
2021/10/13 00:24:51;;;;;;;0.30;0.30;;;;;;;;;;5094584;28;20411;-66
2021/10/13 00:27:17;;;;;;;0.40;0.40;;;;;;;;;;5094689;28;20173;-67
2021/10/13 00:29:43;;;;;;;0.40;0.40;;;;;;;;;;5094049;28;20302;-66
2021/10/13 00:32:09;;;;;;;0.40;0.40;;;;;;;;;;5094432;28;20276;-67
2021/10/13 00:34:35;;;;;;;0.40;0.40;;;;;;;;;;5094410;28;20778;-66
2021/10/13 00:37:02;;;;;;;0.40;0.40;;;;;;;;;;5094476;28;20181;-66
2021/10/13 00:39:28;;;;;;;0.43;0.43;;;;;;;;;;5094410;28;20672;-66
2021/10/13 00:41:54;;;;;;;0.40;0.40;;;;;;;;;;5093307;28;20339;-65
2021/10/13 00:44:20;;;;;;;0.40;0.40;;;;;;;;;;5094339;28;20696;-67
2021/10/13 00:46:46;;;;;;;0.40;0.40;;;;;;;;;;5094252;28;20401;-67
2021/10/13 00:49:12;;;;;;;0.40;0.40;;;;;;;;;;5094304;28;20232;-67
2021/10/13 00:51:38;;;;;;;0.40;0.40;;;;;;;;;;5093393;28;20972;-67
2021/10/13 00:54:04;;;;;;;0.40;0.40;;;;;;;;;;5094181;28;21044;-67
2021/10/13 00:56:30;;;;;;;0.40;0.40;;;;;;;;;;5093994;28;20192;-66
2021/10/13 00:58:56;;;;;;;0.40;0.40;;;;;;;;;;5094004;28;21015;-67
2021/10/13 01:01:45;;;;;;;0.40;0.40;;;;;;;;;;5093751;28;20222;-65
2021/10/13 01:04:17;;;;;;;0.40;0.40;;;;;;;;;;5080411;28;20427;-66
2021/10/13 01:06:43;;;;;;;0.40;0.40;;;;;;;;;;5094059;28;20531;-66
2021/10/13 01:09:14;;;;;;;0.40;0.40;;;;;;;;;;5093785;28;20249;-67
2021/10/13 01:11:47;;;;;;;0.40;0.40;;;;;;;;;;5093624;28;20428;-66
2021/10/13 01:14:31;;;;;;;0.40;0.40;;;;;;;;;;5091860;28;20188;-67
2021/10/13 01:17:10;;;;;;;0.40;0.40;;;;;;;;;;5093811;28;20194;-65
2021/10/13 01:19:36;;;;;;;0.40;0.40;;;;;;;;;;5093761;28;20308;-66
2021/10/13 01:22:14;;;;;;;0.40;0.40;;;;;;;;;;5093495;28;20201;-66
2021/10/13 01:24:46;;;;;;;0.40;0.40;;;;;;;;;;5093193;28;20633;-66
2021/10/13 01:27:27;;;;;;;0.40;0.40;;;;;;;;;;5093534;28;20738;-67
2021/10/13 01:29:53;;;;;;;0.40;0.40;;;;;;;;;;5093302;28;20181;-66
2021/10/13 01:32:23;;;;;;;0.50;0.50;;;;;;;;;;5093200;28;20260;-66
2021/10/13 01:34:49;;;;;;;0.40;0.40;;;;;;;;;;5093296;28;20174;-67
2021/10/13 01:37:18;;;;;;;0.40;0.40;;;;;;;;;;5092876;28;20182;-66
2021/10/13 01:39:44;;;;;;;0.40;0.40;;;;;;;;;;5093222;28;20198;-66
2021/10/13 01:42:12;;;;;;;0.40;0.40;;;;;;;;;;5092869;28;20703;-65
2021/10/13 01:44:39;;;;;;;0.40;0.40;;;;;;;;;;5092950;28;20205;-67
2021/10/13 01:47:05;;;;;;;0.40;0.40;;;;;;;;;;5092619;28;20186;-67
2021/10/13 01:49:33;;;;;;;0.40;0.40;;;;;;;;;;5092532;28;20178;-66
2021/10/13 01:52:00;;;;;;;0.40;0.40;;;;;;;;;;5092719;28;20588;-66
2021/10/13 01:54:26;;;;;;;0.40;0.40;;;;;;;;;;5092935;28;20568;-66
2021/10/13 01:56:53;;;;;;;0.40;0.40;;;;;;;;;;5093077;28;20543;-66
2021/10/13 01:59:22;;;;;;;0.40;0.40;;;;;;;;;;5092683;28;20284;-67
2021/10/13 02:01:50;;;;;;;0.40;0.40;;;;;;;;;;5092755;28;20819;-66
2021/10/13 02:04:17;;;;;;;0.40;0.40;;;;;;;;;;5092824;28;20174;-67
2021/10/13 02:06:44;;;;;;;0.40;0.40;;;;;;;;;;5092758;28;20639;-67
2021/10/13 02:09:10;;;;;;;0.40;0.40;;;;;;;;;;5092336;28;20645;-68
2021/10/13 02:11:36;;;;;;;0.40;0.40;;;;;;;;;;5092235;28;20202;-67
2021/10/13 02:14:04;;;;;;;0.40;0.40;;;;;;;;;;5092527;28;20180;-67
2021/10/13 02:16:32;;;;;;;0.40;0.40;;;;;;;;;;5092486;28;20400;-67
2021/10/13 02:19:00;;;;;;;0.40;0.40;;;;;;;;;;5092177;28;20205;-66
2021/10/13 02:21:27;;;;;;;0.40;0.40;;;;;;;;;;5091671;28;20221;-67
2021/10/13 02:23:55;;;;;;;0.40;0.40;;;;;;;;;;5092271;28;20176;-67
2021/10/13 02:26:28;;;;;;;0.40;0.40;;;;;;;;;;5092418;28;20220;-66
2021/10/13 02:28:57;;;;;;;0.40;0.40;;;;;;;;;;5092472;28;20675;-66
2021/10/13 02:31:23;;;;;;;0.40;0.40;;;;;;;;;;5091729;28;20193;-67
2021/10/13 02:33:49;;;;;;;0.40;0.40;;;;;;;;;;5091988;28;20260;-66
2021/10/13 02:36:15;;;;;;;0.40;0.40;;;;;;;;;;5092148;28;20424;-66
2021/10/13 02:38:41;;;;;;;0.30;0.30;;;;;;;;;;5092214;28;20509;-66
2021/10/13 02:41:07;;;;;;;0.40;0.40;;;;;;;;;;5091793;28;20807;-66
2021/10/13 02:43:33;;;;;;;0.40;0.40;;;;;;;;;;5091654;28;20791;-66
2021/10/13 02:46:28;;;;;;;0.40;0.40;;;;;;;;;;5091929;28;20408;-65
2021/10/13 02:49:00;;;;;;;0.40;0.40;;;;;;;;;;5070183;28;20493;-66
2021/10/13 02:51:29;;;;;;;0.40;0.40;;;;;;;;;;5091661;28;20213;-66
2021/10/13 02:54:02;;;;;;;0.40;0.40;;;;;;;;;;5091630;28;20239;-66
2021/10/13 02:56:35;;;;;;;0.40;0.40;;;;;;;;;;5091893;28;20177;-67
2021/10/13 02:59:18;;;;;;;0.40;0.40;;;;;;;;;;5091717;28;20213;-67
2021/10/13 03:01:45;;;;;;;0.40;0.40;;;;;;;;;;5091582;28;20190;-65
2021/10/13 03:04:15;;;;;;;0.40;0.40;;;;;;;;;;5091780;28;20258;-67
2021/10/13 03:06:48;;;;;;;0.40;0.40;;;;;;;;;;5090983;28;20186;-67
2021/10/13 03:09:15;;;;;;;0.40;0.40;;;;;;;;;;5091594;28;20661;-66
2021/10/13 03:11:43;;;;;;;0.40;0.40;;;;;;;;;;5091305;28;20202;-67
2021/10/13 03:14:09;;;;;;;0.40;0.40;;;;;;;;;;5091390;28;20174;-67
2021/10/13 03:16:35;;;;;;;0.40;0.40;;;;;;;;;;5090970;28;20525;-67
2021/10/13 03:19:02;;;;;;;0.40;0.40;;;;;;;;;;5091237;28;20615;-68
2021/10/13 03:21:28;;;;;;;0.40;0.40;;;;;;;;;;5090899;28;20215;-68
2021/10/13 03:23:54;;;;;;;0.40;0.40;;;;;;;;;;5091247;28;20178;-67
2021/10/13 03:26:20;;;;;;;0.40;0.40;;;;;;;;;;5091204;28;20598;-67
2021/10/13 03:28:46;;;;;;;0.40;0.40;;;;;;;;;;5090898;28;20178;-68
2021/10/13 03:31:12;;;;;;;0.40;0.40;;;;;;;;;;5090825;28;20796;-67
2021/10/13 03:33:38;;;;;;;0.40;0.40;;;;;;;;;;5091207;28;20857;-67
2021/10/13 03:36:09;;;;;;;0.40;0.40;;;;;;;;;;5091706;28;20166;-67
2021/10/13 03:38:35;;;;;;;0.40;0.40;;;;;;;;;;5094896;28;20822;-66
2021/10/13 03:41:01;;;;;;;0.40;0.40;;;;;;;;;;5094851;28;20186;-66
2021/10/13 03:43:27;;;;;;;0.40;0.40;;;;;;;;;;5095247;28;20403;-66
2021/10/13 03:45:53;;;;;;;0.50;0.50;;;;;;;;;;5095232;28;20668;-66
2021/10/13 03:48:19;;;;;;;0.40;0.40;;;;;;;;;;5095112;28;20396;-67
2021/10/13 03:50:45;;;;;;;0.40;0.40;;;;;;;;;;5094214;28;20219;-66
2021/10/13 03:53:11;;;;;;;0.40;0.40;;;;;;;;;;5094636;28;20408;-66
2021/10/13 03:55:37;;;;;;;0.40;0.40;;;;;;;;;;5094908;28;20401;-67
2021/10/13 03:58:03;;;;;;;0.40;0.40;;;;;;;;;;5094880;28;20400;-67
2021/10/13 04:00:29;;;;;;;0.40;0.40;;;;;;;;;;5094257;28;20498;-68
2021/10/13 04:02:55;;;;;;;0.43;0.43;;;;;;;;;;5094789;28;21008;-67
2021/10/13 04:05:21;;;;;;;0.40;0.40;;;;;;;;;;5094792;28;20175;-66
2021/10/13 04:07:47;;;;;;;0.40;0.40;;;;;;;;;;5094721;28;20165;-66
2021/10/13 04:10:14;;;;;;;0.40;0.40;;;;;;;;;;5094413;28;20564;-64
2021/10/13 04:12:40;;;;;;;0.40;0.40;;;;;;;;;;5094250;28;20406;-67
2021/10/13 04:15:08;;;;;;;0.43;0.43;;;;;;;;;;5094571;28;20257;-66
2021/10/13 04:17:34;;;;;;;0.40;0.40;;;;;;;;;;5094694;28;20590;-66
2021/10/13 04:20:09;;;;;;;0.40;0.40;;;;;;;;;;5094334;28;20263;-66
2021/10/13 04:22:35;;;;;;;0.40;0.40;;;;;;;;;;5094365;28;20174;-66
2021/10/13 04:25:01;;;;;;;0.40;0.40;;;;;;;;;;5094115;28;20576;-66
2021/10/13 04:27:27;;;;;;;0.40;0.40;;;;;;;;;;5066542;28;20187;-66
2021/10/13 04:29:53;;;;;;;0.40;0.40;;;;;;;;;;5053964;28;20240;-66
2021/10/13 04:32:20;;;;;;;0.40;0.40;;;;;;;;;;5063144;28;20834;-65
2021/10/13 04:34:47;;;;;;;0.40;0.40;;;;;;;;;;5073345;28;20497;-66
2021/10/13 04:37:13;;;;;;;0.40;0.40;;;;;;;;;;5073936;28;20175;-66
2021/10/13 04:39:39;;;;;;;0.40;0.40;;;;;;;;;;5072847;28;20206;-65
2021/10/13 04:42:05;;;;;;;0.40;0.40;;;;;;;;;;5073645;28;20413;-67
2021/10/13 04:44:31;;;;;;;0.40;0.40;;;;;;;;;;5071793;28;20420;-67
2021/10/13 04:46:57;;;;;;;0.40;0.40;;;;;;;;;;5069416;28;20563;-66
2021/10/13 04:49:23;;;;;;;0.40;0.40;;;;;;;;;;5073192;28;20423;-66
2021/10/13 04:51:48;;;;;;;0.40;0.40;;;;;;;;;;5054895;28;20464;-66
2021/10/13 04:54:14;;;;;;;0.40;0.40;;;;;;;;;;5070764;28;20432;-66
2021/10/13 04:56:40;;;;;;;0.40;0.40;;;;;;;;;;5053294;28;20426;-66
2021/10/13 04:59:06;;;;;;;0.33;0.33;;;;;;;;;;5057072;28;20463;-67
2021/10/13 05:01:32;;;;;;;0.40;0.40;;;;;;;;;;5064214;28;20859;-66
2021/10/13 05:03:58;;;;;;;0.40;0.40;;;;;;;;;;5055155;28;20454;-66
2021/10/13 05:06:24;;;;;;;0.40;0.40;;;;;;;;;;5064436;28;20414;-66
2021/10/13 05:08:50;;;;;;;0.40;0.40;;;;;;;;;;5065163;28;20772;-66
2021/10/13 05:11:16;;;;;;;0.40;0.40;;;;;;;;;;5053076;28;20513;-66
2021/10/13 05:13:42;;;;;;;0.40;0.40;;;;;;;;;;5061670;28;20998;-67
2021/10/13 05:16:08;;;;;;;0.40;0.40;;;;;;;;;;5073968;28;20412;-66
2021/10/13 05:18:34;;;;;;;0.40;0.40;;;;;;;;;;5072768;28;20410;-66
2021/10/13 05:21:00;;;;;;;0.40;0.40;;;;;;;;;;5072430;28;20425;-67
2021/10/13 05:23:26;;;;;;;0.40;0.40;;;;;;;;;;5070209;28;20179;-68
2021/10/13 05:25:52;;;;;;;0.40;0.40;;;;;;;;;;5064215;28;20420;-67
2021/10/13 05:28:18;;;;;;;0.40;0.40;;;;;;;;;;5052996;28;20482;-67
2021/10/13 05:30:44;;;;;;;0.40;0.40;;;;;;;;;;5051915;28;20440;-65
2021/10/13 05:33:10;;;;;;;0.40;0.40;;;;;;;;;;5071176;28;20179;-66
2021/10/13 05:35:36;;;;;;;0.50;0.50;;;;;;;;;;5061586;28;20446;-67
2021/10/13 05:38:02;;;;;;;0.40;0.40;;;;;;;;;;5052780;28;20764;-66
2021/10/13 05:40:28;;;;;;;0.50;0.50;;;;;;;;;;5061840;28;20503;-65
2021/10/13 05:42:54;;;;;;;0.40;0.40;;;;;;;;;;5072353;28;20569;-66
2021/10/13 05:45:20;;;;;;;0.40;0.40;;;;;;;;;;5054067;28;20418;-65
2021/10/13 05:47:46;;;;;;;0.40;0.40;;;;;;;;;;5059008;28;20568;-66
2021/10/13 05:50:12;;;;;;;0.40;0.40;;;;;;;;;;5059727;28;20265;-65
2021/10/13 05:52:38;;;;;;;0.50;0.50;;;;;;;;;;5084220;22;20496;-66
2021/10/13 05:55:04;;;;;;;0.40;0.40;;;;;;;;;;5072113;28;20912;-66
2021/10/13 05:57:30;;;;;;;0.40;0.40;;;;;;;;;;5072824;28;20480;-66
2021/10/13 05:59:58;;;;;;;0.47;0.47;;;;;;;;;;5072052;28;20687;-66
2021/10/13 06:02:24;;;;;;;0.40;0.40;;;;;;;;;;5072138;28;20526;-66
2021/10/13 06:04:50;;;;;;;0.40;0.40;;;;;;;;;;5072208;28;20178;-66
2021/10/13 06:07:16;;;;;;;0.40;0.40;;;;;;;;;;5072316;28;20201;-66
2021/10/13 06:09:42;;;;;;;0.40;0.40;;;;;;;;;;5071708;28;20474;-66
2021/10/13 06:12:08;;;;;;;0.40;0.40;;;;;;;;;;5071753;28;20444;-66
2021/10/13 06:14:34;;;;;;;0.30;0.30;;;;;;;;;;5071983;28;20409;-66
2021/10/13 06:17:00;;;;;;;0.40;0.40;;;;;;;;;;5072071;28;20411;-66
2021/10/13 06:19:26;;;;;;;0.40;0.40;;;;;;;;;;5072450;28;20459;-66
2021/10/13 06:21:52;;;;;;;0.40;0.40;;;;;;;;;;5072030;28;20187;-65
2021/10/13 06:24:18;;;;;;;0.37;0.37;;;;;;;;;;5070738;28;20834;-66
2021/10/13 06:26:44;;;;;;;0.40;0.40;;;;;;;;;;5071984;28;20772;-66
2021/10/13 06:29:10;;;;;;;0.40;0.40;;;;;;;;;;5072206;28;20478;-66
2021/10/13 06:31:36;;;;;;;0.40;0.40;;;;;;;;;;5071825;28;20855;-66
2021/10/13 06:34:02;;;;;;;0.40;0.40;;;;;;;;;;5071885;28;20415;-66
2021/10/13 06:36:28;;;;;;;0.40;0.40;;;;;;;;;;5071209;28;20887;-66
2021/10/13 06:38:54;;;;;;;0.40;0.40;;;;;;;;;;5071388;28;20206;-66
2021/10/13 06:41:20;;;;;;;0.40;0.40;;;;;;;;;;5071300;28;20893;-66
2021/10/13 06:43:46;;;;;;;0.40;0.40;;;;;;;;;;5071752;28;20485;-67
2021/10/13 06:46:12;;;;;;;0.40;0.40;;;;;;;;;;5071643;28;20230;-66
2021/10/13 06:48:38;;;;;;;0.40;0.40;;;;;;;;;;5071024;28;20179;-66
2021/10/13 06:51:04;;;;;;;0.40;0.40;;;;;;;;;;5070635;28;20411;-66
2021/10/13 06:53:30;;;;;;;0.40;0.40;;;;;;;;;;5071431;28;20167;-66
2021/10/13 06:55:56;;;;;;;0.40;0.40;;;;;;;;;;5070126;28;20409;-66
2021/10/13 06:58:22;;;;;;;0.40;0.40;;;;;;;;;;5071432;28;20996;-66
2021/10/13 07:00:48;;;;;;;0.40;0.40;;;;;;;;;;5070883;28;20260;-66
2021/10/13 07:03:14;;;;;;;0.40;0.40;;;;;;;;;;5071458;28;20426;-66
2021/10/13 07:05:40;;;;;;;0.40;0.40;;;;;;;;;;5071581;28;20430;-66
2021/10/13 07:08:06;;;;;;;0.40;0.40;;;;;;;;;;5069956;28;20199;-66
2021/10/13 07:10:32;;;;;;;0.40;0.40;;;;;;;;;;5070326;28;20408;-66
2021/10/13 07:12:58;;;;;;;0.40;0.40;;;;;;;;;;5071115;28;20426;-65
2021/10/13 07:15:24;;;;;;;0.40;0.40;;;;;;;;;;5072599;28;20203;-66
2021/10/13 07:17:50;;;;;;;0.40;0.40;;;;;;;;;;5073540;28;20198;-66
2021/10/13 07:20:16;;;;;;;0.50;0.50;;;;;;;;;;5071061;28;20467;-65
2021/10/13 07:22:42;;;;;;;0.40;0.40;;;;;;;;;;5070697;28;20195;-65
2021/10/13 07:25:09;;;;;;;0.40;0.40;;;;;;;;;;5071204;28;20484;-65
2021/10/13 07:27:36;;;;;;;0.40;0.40;;;;;;;;;;5071290;28;20194;-66
2021/10/13 07:30:03;;;;;;;0.40;0.40;;;;;;;;;;5070949;28;20167;-65
2021/10/13 07:32:31;;;;;;;0.50;0.50;;;;;;;;;;5069118;28;20196;-65
2021/10/13 07:34:57;;;;;;;0.40;0.40;;;;;;;;;;5071010;28;20178;-66
2021/10/13 07:37:23;;;;;;;0.40;0.40;;;;;;;;;;5071072;28;20202;-65
2021/10/13 07:39:49;;;;;;;0.40;0.40;;;;;;;;;;5070709;28;20199;-66
2021/10/13 07:42:16;;;;;;;0.40;0.40;;;;;;;;;;5071364;28;20194;-66
2021/10/13 07:44:42;;;;;;;0.40;0.40;;;;;;;;;;5070483;28;20221;-65
2021/10/13 07:47:09;;;;;;;0.40;0.40;;;;;;;;;;5070972;28;20174;-65
2021/10/13 07:49:35;;;;;;;0.40;0.40;;;;;;;;;;5070718;28;20189;-65
2021/10/13 07:52:01;;;;;;;0.40;0.40;;;;;;;;;;5070096;28;20210;-66
2021/10/13 07:54:27;;;;;;;0.40;0.40;;;;;;;;;;5070428;28;20240;-66
2021/10/13 07:56:53;;;;;;;0.40;0.40;;;;;;;;;;5070700;28;20404;-65
2021/10/13 07:59:19;;;;;;;0.40;0.40;;;;;;;;;;5070841;28;20781;-66
2021/10/13 08:01:45;;;;;;;0.40;0.40;;;;;;;;;;5070446;28;20504;-65
2021/10/13 08:04:11;;;;;;;0.40;0.40;;;;;;;;;;5069545;28;20301;-65
2021/10/13 08:06:37;;;;;;;0.40;0.40;;;;;;;;;;5071042;28;20414;-66
2021/10/13 08:09:03;;;;;;;0.40;0.40;;;;;;;;;;5071162;28;20312;-66
2021/10/13 08:11:29;;;;;;;0.40;0.40;;;;;;;;;;5070718;28;20430;-66
2021/10/13 08:13:55;;;;;;;0.40;0.40;;;;;;;;;;5070932;28;20443;-64
2021/10/13 08:16:21;;;;;;;0.40;0.40;;;;;;;;;;5070596;28;20416;-63
2021/10/13 08:18:47;;;;;;;0.40;0.40;;;;;;;;;;5070837;28;20453;-64
2021/10/13 08:21:13;;;;;;;0.40;0.40;;;;;;;;;;5070684;28;20428;-64
2021/10/13 08:23:38;;;;;;;0.40;0.40;;;;;;;;;;5073590;28;20405;-64
2021/10/13 08:26:04;;;;;;;0.40;0.40;;;;;;;;;;5074587;28;20405;-64
2021/10/13 08:28:30;;;;;;;0.40;0.40;;;;;;;;;;5074435;28;20402;-64
2021/10/13 08:30:57;;;;;;;0.40;0.40;;;;;;;;;;5074117;28;20412;-64
2021/10/13 08:33:23;;;;;;;0.40;0.40;;;;;;;;;;5074314;28;20406;-64
2021/10/13 08:35:49;;;;;;;0.40;0.40;;;;;;;;;;5074577;28;20225;-64
2021/10/13 08:38:15;;;;;;;0.40;0.40;;;;;;;;;;5074198;28;20806;-64
2021/10/13 08:40:42;;;;;;;0.40;0.40;;;;;;;;;;5074307;28;20198;-63
2021/10/13 08:43:08;;;;;;;0.40;0.40;;;;;;;;;;5074067;28;20658;-64
2021/10/13 08:45:35;;;;;;;0.40;0.40;;;;;;;;;;5074246;28;20167;-64
2021/10/13 08:48:02;;;;;;;0.40;0.40;;;;;;;;;;5074067;28;20626;-64
2021/10/13 08:50:29;;;;;;;0.40;0.40;;;;;;;;;;5073988;28;20268;-64
2021/10/13 08:53:11;;;;;;;0.40;0.40;;;;;;;;;;5073916;28;20214;-64
2021/10/13 08:55:38;;;;;;;0.40;0.40;;;;;;;;;;5073674;28;20250;-66
2021/10/13 08:58:10;;;;;;;0.40;0.40;;;;;;;;;;5074222;28;20171;-64
2021/10/13 09:00:36;;;;;;;0.40;0.40;;;;;;;;;;5073586;28;20328;-65
2021/10/13 09:03:02;;;;;;;0.40;0.40;;;;;;;;;;5074129;28;20274;-65
2021/10/13 09:05:28;;;;;;;0.40;0.40;;;;;;;;;;5072659;28;20256;-65
2021/10/13 09:07:56;;;;;;;0.40;0.40;;;;;;;;;;5073816;28;20565;-65
2021/10/13 09:10:31;;;;;;;0.40;0.40;;;;;;;;;;5073516;28;20928;-65
2021/10/13 09:12:58;;;;;;;0.40;0.40;;;;;;;;;;5073544;28;20522;-65
2021/10/13 09:15:26;;;;;;;0.40;0.40;;;;;;;;;;5073631;28;20177;-65
2021/10/13 09:17:52;;;;;;;0.40;0.40;;;;;;;;;;5073776;28;20179;-65
2021/10/13 09:20:19;;;;;;;0.40;0.40;;;;;;;;;;5073241;28;20203;-65
2021/10/13 09:23:00;;;;;;;0.40;0.40;;;;;;;;;;5073265;28;20449;-65
2021/10/13 09:25:26;;;;;;;0.40;0.40;;;;;;;;;;5053306;28;20207;-65
2021/10/13 09:27:52;;;;;;;0.40;0.40;;;;;;;;;;5053474;28;20525;-65
2021/10/13 09:30:25;;;;;;;0.40;0.40;;;;;;;;;;5053122;28;20547;-65
2021/10/13 09:32:51;;;;;;;0.40;0.40;;;;;;;;;;5053305;28;20198;-65
2021/10/13 09:35:26;;;;;;;0.40;0.40;;;;;;;;;;5052383;28;20183;-64
2021/10/13 09:37:52;;;;;;;0.50;0.50;;;;;;;;;;5053129;28;20168;-65
2021/10/13 09:40:28;;;;;;;0.30;0.30;;;;;;;;;;5052870;28;20230;-65
2021/10/13 09:42:58;;;;;;;0.40;0.40;;;;;;;;;;5051892;28;20437;-65
2021/10/13 09:45:25;;;;;;;0.40;0.40;;;;;;;;;;5053172;28;20651;-65
2021/10/13 09:47:57;;;;;;;0.40;0.40;;;;;;;;;;5052999;28;20168;-65
2021/10/13 09:50:23;;;;;;;0.40;0.40;;;;;;;;;;5052798;28;20175;-65
2021/10/13 09:52:49;;;;;;;0.40;0.40;;;;;;;;;;5052656;28;20214;-65
2021/10/13 09:55:15;;;;;;;0.37;0.37;;;;;;;;;;5052854;28;20410;-65
2021/10/13 09:57:42;;;;;;;0.40;0.40;;;;;;;;;;5052859;28;20834;-65
2021/10/13 10:00:11;;;;;;;0.40;0.40;;;;;;;;;;5052487;28;20549;-65
2021/10/13 10:02:44;;;;;;;0.40;0.40;;;;;;;;;;5051252;28;20200;-65
2021/10/13 10:05:11;;;;;;;0.40;0.40;;;;;;;;;;5052609;28;20172;-65
2021/10/13 10:07:43;;;;;;;0.40;0.40;;;;;;;;;;5051422;28;20599;-65
2021/10/13 10:10:14;;;;;;;0.38;0.38;;;;;;;;;;5051237;28;20643;-65
2021/10/13 10:12:59;;;;;;;0.40;0.40;;;;;;;;;;5052500;28;20296;-65
2021/10/13 10:15:31;;;;;;;0.30;0.30;;;;;;;;;;5052535;28;20758;-65
2021/10/13 10:17:57;;;;;;;0.30;0.30;;;;;;;;;;5052678;28;20180;-65
2021/10/13 10:20:37;;;;;;;0.30;0.30;;;;;;;;;;5052277;28;21095;-65
2021/10/13 10:23:23;;;;;;;0.30;0.30;;;;;;;;;;5052404;28;20431;-66
2021/10/13 10:25:49;;;;;;;0.30;0.30;;;;;;;;;;5038533;28;20419;-66
2021/10/13 10:28:38;;;;;;;0.30;0.30;;;;;;;;;;5052283;28;20416;-66
2021/10/13 10:31:23;;;;;;;0.30;0.20;;;;;;;;;;5040821;28;20429;-64
2021/10/13 10:33:49;;;;;;;0.30;0.20;;;;;;;;;;5052094;28;20413;-64
2021/10/13 10:36:15;;;;;;;0.30;0.20;;;;;;;;;;5052068;28;20403;-64
2021/10/13 10:38:47;;;;;;;0.30;0.20;;;;;;;;;;5052088;28;20410;-64
2021/10/13 10:41:13;;;;;;;0.30;0.20;;;;;;;;;;5051843;28;20427;-64
2021/10/13 10:43:39;;;;;;;0.30;0.20;;;;;;;;;;5052041;28;20761;-64
2021/10/13 10:46:05;;;;;;;0.30;0.20;;;;;;;;;;5058861;28;20893;-65
2021/10/13 10:48:43;;;;;;;0.30;0.30;;;;;;;;;;5071897;28;20406;-65
2021/10/13 10:51:10;;;;;;;0.30;0.30;;;;;;;;;;5071287;28;20405;-64
2021/10/13 10:53:37;;;;;;;0.30;0.30;;;;;;;;;;5072058;28;20534;-65
2021/10/13 10:56:21;;;;;;;0.30;0.30;;;;;;;;;;5071824;28;20817;-65
2021/10/13 10:58:57;;;;;;;0.30;0.30;;;;;;;;;;5071784;28;20380;-66
2021/10/13 11:01:23;;;;;;;0.30;0.30;;;;;;;;;;5071534;28;20417;-64
2021/10/13 11:03:49;;;;;;;0.30;0.30;;;;;;;;;;5071772;28;20405;-66
2021/10/13 11:06:20;;;;;;;0.30;0.30;;;;;;;;;;5070438;28;20875;-67
2021/10/13 11:08:51;;;;;;;0.30;0.30;;;;;;;;;;5069820;28;20414;-66
2021/10/13 11:11:17;;;;;;;0.30;0.30;;;;;;;;;;5070520;28;20198;-66
2021/10/13 11:13:56;;;;;;;0.30;0.30;;;;;;;;;;5072222;28;20167;-64
2021/10/13 11:16:22;;;;;;;0.40;0.40;;;;;;;;;;5071518;28;20398;-66
2021/10/13 11:18:48;;;;;;;0.30;0.30;;;;;;;;;;5071773;28;20216;-64
2021/10/13 11:21:14;;;;;;;0.40;0.40;;;;;;;;;;5071049;28;20563;-67
2021/10/13 11:23:41;;;;;;;0.30;0.30;;;;;;;;;;5071850;28;20933;-64
2021/10/13 11:26:06;;;;;;;0.30;0.30;;;;;;;;;;5072195;28;20621;-64
2021/10/13 11:28:34;;;;;;;0.30;0.30;;;;;;;;;;5071644;28;20182;-65
2021/10/13 11:31:03;;;;;;;0.30;0.30;;;;;;;;;;5071449;28;20398;-64
2021/10/13 11:33:29;;;;;;;0.30;0.30;;;;;;;;;;5071262;28;20741;-64
2021/10/13 11:35:59;;;;;;;0.30;0.30;;;;;;;;;;5071637;28;20390;-65
2021/10/13 11:38:25;;;;;;;0.30;0.30;;;;;;;;;;5070829;28;20477;-64
2021/10/13 11:40:51;;;;;;;0.40;0.40;;;;;;;;;;5071258;28;20560;-64
2021/10/13 11:43:18;;;;;;;0.30;0.30;;;;;;;;;;5071215;28;20409;-64
2021/10/13 11:45:47;;;;;;;0.30;0.30;;;;;;;;;;5071679;28;20492;-67
2021/10/13 11:48:21;;;;;;;0.30;0.30;;;;;;;;;;5071338;28;20410;-66
2021/10/13 11:50:47;;;;;;;0.30;0.30;;;;;;;;;;5070294;28;20190;-64
2021/10/13 11:53:14;;;;;;;0.30;0.30;;;;;;;;;;5121516;22;20226;-66
2021/10/13 11:55:40;;;;;;;0.40;0.40;;;;;;;;;;5092656;28;20488;-66
2021/10/13 11:58:06;;;;;;;0.30;0.30;;;;;;;;;;5094143;28;20449;-66
2021/10/13 12:00:33;;;;;;;0.40;0.40;;;;;;;;;;5095632;28;20866;-66
2021/10/13 12:03:04;;;;;;;0.40;0.40;;;;;;;;;;5077502;28;20731;-66
2021/10/13 12:05:37;;;;;;;0.32;0.32;;;;;;;;;;5077157;28;20729;-66
2021/10/13 12:08:08;;;;;;;0.30;0.30;;;;;;;;;;5095237;28;20170;-66
2021/10/13 12:10:41;;;;;;;0.30;0.30;;;;;;;;;;5095562;28;20184;-66
2021/10/13 12:13:12;;;;;;;0.37;0.37;;;;;;;;;;5095294;28;20523;-66
2021/10/13 12:15:40;;;;;;;0.30;0.30;;;;;;;;;;5095475;28;20824;-66
2021/10/13 12:18:13;;;;;;;0.30;0.30;;;;;;;;;;5094528;28;20407;-66
2021/10/13 12:20:39;;;;;;;0.30;0.30;;;;;;;;;;5094691;28;20447;-66
2021/10/13 12:23:15;;;;;;;0.30;0.30;;;;;;;;;;5095069;28;20428;-66
2021/10/13 12:25:41;;;;;;;0.30;0.30;;;;;;;;;;5095209;28;20413;-66
2021/10/13 12:28:15;;;;;;;0.30;0.30;;;;;;;;;;5094594;28;20405;-66
2021/10/13 12:30:41;;;;;;;0.30;0.30;;;;;;;;;;5094901;28;20412;-66
2021/10/13 12:33:08;;;;;;;0.30;0.30;;;;;;;;;;5094785;28;20406;-66
2021/10/13 12:35:34;;;;;;;0.30;0.30;;;;;;;;;;5094866;28;20169;-66
2021/10/13 12:38:01;;;;;;;0.40;0.40;;;;;;;;;;5094704;28;20175;-66
2021/10/13 12:40:27;;;;;;;0.40;0.40;;;;;;;;;;5094042;28;20425;-66
2021/10/13 12:42:55;;;;;;;0.30;0.30;;;;;;;;;;5094677;28;20427;-66
2021/10/13 12:45:25;;;;;;;0.30;0.30;;;;;;;;;;5094602;28;20399;-66
2021/10/13 12:47:51;;;;;;;0.30;0.30;;;;;;;;;;5094563;28;20745;-66
2021/10/13 12:50:18;;;;;;;0.30;0.30;;;;;;;;;;5093954;28;20411;-66
2021/10/13 12:52:44;;;;;;;0.30;0.30;;;;;;;;;;5093973;28;20935;-66
2021/10/13 12:55:10;;;;;;;0.30;0.30;;;;;;;;;;5094288;28;20462;-66
2021/10/13 12:57:36;;;;;;;0.30;0.30;;;;;;;;;;5094101;28;20400;-66
2021/10/13 13:00:04;;;;;;;0.30;0.30;;;;;;;;;;5093966;28;20463;-67
2021/10/13 13:02:30;;;;;;;0.30;0.30;;;;;;;;;;5093496;28;20481;-66
2021/10/13 13:04:56;;;;;;;0.40;0.40;;;;;;;;;;5094047;28;20646;-66
2021/10/13 13:07:22;;;;;;;0.30;0.30;;;;;;;;;;5094063;28;20413;-66
2021/10/13 13:09:48;;;;;;;0.30;0.30;;;;;;;;;;5092710;28;20493;-66
2021/10/13 13:12:14;;;;;;;0.30;0.30;;;;;;;;;;5095364;28;20428;-66
2021/10/13 13:14:40;;;;;;;0.30;0.30;;;;;;;;;;5093993;28;20979;-66
2021/10/13 13:17:07;;;;;;;0.30;0.30;;;;;;;;;;5094057;28;20175;-66
2021/10/13 13:19:33;;;;;;;0.30;0.30;;;;;;;;;;5093658;28;20198;-66
2021/10/13 13:21:59;;;;;;;0.30;0.30;;;;;;;;;;5093472;28;20219;-66
2021/10/13 13:24:25;;;;;;;0.30;0.30;;;;;;;;;;5092914;28;20777;-66
2021/10/13 13:26:51;;;;;;;0.40;0.40;;;;;;;;;;5093657;28;21049;-66
2021/10/13 13:29:17;;;;;;;0.40;0.40;;;;;;;;;;5093450;28;20384;-66
2021/10/13 13:31:43;;;;;;;0.40;0.40;;;;;;;;;;5093208;28;20425;-66
2021/10/13 13:34:09;;;;;;;0.40;0.40;;;;;;;;;;5093480;28;20835;-66
2021/10/13 13:36:35;;;;;;;0.40;0.40;;;;;;;;;;5093140;28;20206;-66
2021/10/13 13:39:01;;;;;;;0.30;0.30;;;;;;;;;;5093205;28;20473;-66
2021/10/13 13:41:27;;;;;;;0.30;0.30;;;;;;;;;;5093060;28;20401;-66
2021/10/13 13:43:52;;;;;;;0.40;0.40;;;;;;;;;;5093276;28;20440;-66
2021/10/13 13:46:20;;;;;;;0.30;0.30;;;;;;;;;;5092746;28;20423;-67
2021/10/13 13:48:47;;;;;;;0.40;0.40;;;;;;;;;;5093332;28;20470;-66
2021/10/13 13:51:13;;;;;;;0.40;0.40;;;;;;;;;;5096234;28;20228;-66
2021/10/13 13:53:40;;;;;;;0.30;0.30;;;;;;;;;;5082306;28;20433;-66
2021/10/13 13:56:06;;;;;;;0.30;0.30;;;;;;;;;;5072285;28;20702;-66
2021/10/13 13:58:32;;;;;;;0.30;0.30;;;;;;;;;;5071860;28;20203;-66
2021/10/13 14:00:58;;;;;;;0.40;0.40;;;;;;;;;;5072324;28;20246;-66
2021/10/13 14:03:24;;;;;;;0.30;0.30;;;;;;;;;;5072550;28;20426;-66
2021/10/13 14:05:50;;;;;;;0.40;0.40;;;;;;;;;;5054548;28;20528;-66
2021/10/13 14:08:16;;;;;;;0.30;0.30;;;;;;;;;;5072395;28;20422;-66
2021/10/13 14:10:42;;;;;;;0.30;0.30;;;;;;;;;;5071818;28;20175;-66
2021/10/13 14:13:08;;;;;;;0.30;0.30;;;;;;;;;;5072323;28;20353;-66
2021/10/13 14:15:35;;;;;;;0.40;0.40;;;;;;;;;;5072367;28;20174;-66
2021/10/13 14:18:01;;;;;;;0.40;0.40;;;;;;;;;;5072329;28;20428;-66
2021/10/13 14:20:27;;;;;;;0.30;0.30;;;;;;;;;;5071227;28;20836;-66
2021/10/13 14:22:53;;;;;;;0.40;0.40;;;;;;;;;;5072286;28;20202;-66
2021/10/13 14:25:19;;;;;;;0.37;0.37;;;;;;;;;;5072269;28;20172;-66
2021/10/13 14:27:45;;;;;;;0.40;0.40;;;;;;;;;;5072204;28;20405;-66
2021/10/13 14:30:11;;;;;;;0.30;0.30;;;;;;;;;;5071686;28;20417;-66
2021/10/13 14:32:37;;;;;;;0.40;0.40;;;;;;;;;;5071526;28;20422;-66
2021/10/13 14:35:03;;;;;;;0.40;0.40;;;;;;;;;;5072078;28;20175;-66
2021/10/13 14:37:29;;;;;;;0.40;0.40;;;;;;;;;;5071940;28;20405;-66
2021/10/13 14:39:55;;;;;;;0.40;0.40;;;;;;;;;;5071926;28;20562;-66
2021/10/13 14:42:23;;;;;;;0.40;0.40;;;;;;;;;;5071537;28;20421;-66
2021/10/13 14:44:49;;;;;;;0.40;0.40;;;;;;;;;;5071709;28;20542;-66